Wetterdaten: Woche 01.08.11 - 07.08.11 (KW31)
Datum Zeit Temp. Innen Temp. Aussen UV X Diff Temp. Feuchte Inne Feuchte Auss Sonnenschein Luftdruck Regen ab 0,1 Wind Sonnenschein T Regendauer Windben
01.08.2011 00:00 21,7 C 12,2 C 0,0 UV-I 0,0 C 56 % 86 % 0 % 1016,7 hPa 0,0 l/m 0,0 km/h (0 Bft) 0,00 h 0,00 h 0,0 km/h (0 Bft)
01.08.2011 01:00 21,6 C 12,1 C 0,0 UV-I 0,0 C 57 % 87 % 0 % 1016,7 hPa 0,0 l/m 0,0 km/h (0 Bft) 0,00 h 0,00 h 0,0 km/h (0 Bft)
01.08.2011 02:00 21,4 C 11,6 C 0,0 UV-I 0,0 C 57 % 88 % 0 % 1016,3 hPa 0,0 l/m 0,0 km/h (0 Bft) 0,00 h 0,00 h 0,0 km/h (0 Bft)
01.08.2011 03:00 21,3 C 10,9 C 0,0 UV-I 0,0 C 57 % 88 % 0 % 1016,1 hPa 0,0 l/m 0,0 km/h (0 Bft) 0,00 h 0,00 h 0,0 km/h (0 Bft)
01.08.2011 04:00 21,1 C 10,1 C 0,0 UV-I 0,0 C 57 % 89 % 0 % 1016,3 hPa 0,0 l/m 0,0 km/h (0 Bft) 0,00 h 0,00 h 0,0 km/h (0 Bft)
01.08.2011 05:00 20,9 C 9,4 C 0,0 UV-I 0,0 C 57 % 90 % 0 % 1016,3 hPa 0,0 l/m 0,0 km/h (0 Bft) 0,00 h 0,00 h 0,0 km/h (0 Bft)
01.08.2011 06:00 20,8 C 9,0 C 0,1 UV-I 0,0 C 57 % 90 % 0 % 1016,2 hPa 0,0 l/m 0,0 km/h (0 Bft) 0,00 h 0,00 h 0,0 km/h (0 Bft)
01.08.2011 07:00 20,7 C 10,0 C 0,4 UV-I 0,1 C 57 % 92 % 3 % 1016,3 hPa 0,0 l/m 0,1 km/h (0 Bft) 0,00 h 0,00 h 0,9 km/h (0 Bft)
01.08.2011 08:00 20,7 C 11,6 C 1,0 UV-I 1,9 C 57 % 92 % 47 % 1016,6 hPa 0,0 l/m 1,0 km/h (0 Bft) 0,27 h 0,00 h 2,6 km/h (1 Bft)
01.08.2011 09:00 20,9 C 14,6 C 3,6 UV-I 7,0 C 57 % 88 % 100 % 1016,7 hPa 0,0 l/m 1,2 km/h (1 Bft) 1,00 h 0,00 h 1,8 km/h (1 Bft)
01.08.2011 10:00 21,1 C 17,5 C 5,5 UV-I 8,3 C 58 % 76 % 100 % 1016,6 hPa 0,0 l/m 1,7 km/h (1 Bft) 1,00 h 0,00 h 3,9 km/h (1 Bft)
01.08.2011 11:00 21,4 C 19,3 C 6,6 UV-I 7,6 C 57 % 66 % 100 % 1016,6 hPa 0,0 l/m 4,3 km/h (1 Bft) 1,00 h 0,00 h 6,9 km/h (2 Bft)
01.08.2011 12:00 22,0 C 20,5 C 3,6 UV-I 7,0 C 56 % 61 % 100 % 1016,7 hPa 0,0 l/m 4,2 km/h (1 Bft) 1,00 h 0,00 h 6,7 km/h (2 Bft)
01.08.2011 13:00 22,5 C 22,0 C 4,5 UV-I 6,1 C 55 % 58 % 100 % 1016,4 hPa 0,0 l/m 6,8 km/h (2 Bft) 1,00 h 0,00 h 10,4 km/h (2 Bft)
01.08.2011 14:00 23,6 C 23,2 C 5,9 UV-I 5,6 C 54 % 54 % 100 % 1016,6 hPa 0,0 l/m 7,0 km/h (2 Bft) 1,00 h 0,00 h 10,2 km/h (2 Bft)
01.08.2011 15:00 24,6 C 24,4 C 7,2 UV-I 5,5 C 52 % 52 % 100 % 1016,5 hPa 0,0 l/m 6,8 km/h (2 Bft) 1,00 h 0,00 h 10,6 km/h (2 Bft)
01.08.2011 16:00 24,6 C 25,3 C 7,9 UV-I 5,5 C 51 % 51 % 100 % 1015,9 hPa 0,0 l/m 5,5 km/h (1 Bft) 1,00 h 0,00 h 8,6 km/h (2 Bft)
01.08.2011 17:00 24,4 C 25,6 C 4,4 UV-I 5,5 C 52 % 50 % 100 % 1015,3 hPa 0,0 l/m 4,5 km/h (1 Bft) 1,00 h 0,00 h 7,0 km/h (2 Bft)
01.08.2011 18:00 24,5 C 24,9 C 1,7 UV-I 3,2 C 52 % 51 % 71 % 1015,2 hPa 0,0 l/m 2,4 km/h (1 Bft) 0,53 h 0,00 h 5,0 km/h (1 Bft)
01.08.2011 19:00 24,3 C 24,2 C 0,9 UV-I 0,1 C 53 % 53 % 3 % 1015,0 hPa 0,0 l/m 1,0 km/h (0 Bft) 0,00 h 0,00 h 1,5 km/h (1 Bft)
01.08.2011 20:00 24,1 C 23,4 C 0,2 UV-I 0,0 C 54 % 57 % 0 % 1014,9 hPa 0,0 l/m 0,2 km/h (0 Bft) 0,00 h 0,00 h 0,3 km/h (0 Bft)
01.08.2011 21:00 23,9 C 21,3 C 0,0 UV-I 0,0 C 54 % 66 % 0 % 1015,0 hPa 0,0 l/m 0,0 km/h (0 Bft) 0,00 h 0,00 h 0,0 km/h (0 Bft)
01.08.2011 22:00 23,6 C 18,9 C 0,0 UV-I 0,0 C 55 % 74 % 0 % 1015,1 hPa 0,0 l/m 0,0 km/h (0 Bft) 0,00 h 0,00 h 0,0 km/h (0 Bft)
01.08.2011 23:00 23,3 C 17,4 C 0,0 UV-I 0,0 C 56 % 80 % 0 % 1015,3 hPa 0,0 l/m 0,0 km/h (0 Bft) 0,00 h 0,00 h 0,0 km/h (0 Bft)
02.08.2011 00:00 23,1 C 16,5 C 0,0 UV-I 0,0 C 57 % 84 % 0 % 1015,5 hPa 0,0 l/m 0,0 km/h (0 Bft) 0,00 h 0,00 h 0,0 km/h (0 Bft)
02.08.2011 01:00 23,0 C 16,0 C 0,0 UV-I 0,0 C 58 % 86 % 0 % 1015,6 hPa 0,0 l/m 0,0 km/h (0 Bft) 0,00 h 0,00 h 0,0 km/h (0 Bft)
02.08.2011 02:00 22,8 C 16,0 C 0,0 UV-I 0,0 C 58 % 86 % 0 % 1016,1 hPa 0,0 l/m 0,2 km/h (0 Bft) 0,00 h 0,00 h 0,7 km/h (0 Bft)
02.08.2011 03:00 22,8 C 15,7 C 0,0 UV-I 0,0 C 59 % 86 % 0 % 1015,9 hPa 0,0 l/m 0,0 km/h (0 Bft) 0,00 h 0,00 h 0,0 km/h (0 Bft)
02.08.2011 04:00 22,7 C 15,5 C 0,0 UV-I 0,0 C 59 % 87 % 0 % 1015,8 hPa 0,0 l/m 0,5 km/h (0 Bft) 0,00 h 0,00 h 1,8 km/h (1 Bft)
02.08.2011 05:00 22,6 C 15,2 C 0,0 UV-I 0,0 C 59 % 87 % 0 % 1015,8 hPa 0,0 l/m 0,6 km/h (0 Bft) 0,00 h 0,00 h 0,6 km/h (0 Bft)
02.08.2011 06:00 22,5 C 14,5 C 0,0 UV-I 0,0 C 60 % 88 % 0 % 1015,9 hPa 0,0 l/m 0,0 km/h (0 Bft) 0,00 h 0,00 h 0,1 km/h (0 Bft)
02.08.2011 07:00 22,4 C 15,3 C 0,4 UV-I 0,0 C 60 % 90 % 1 % 1016,2 hPa 0,0 l/m 1,3 km/h (1 Bft) 0,00 h 0,00 h 3,9 km/h (1 Bft)
02.08.2011 08:00 22,5 C 17,6 C 1,2 UV-I 2,2 C 60 % 87 % 46 % 1016,4 hPa 0,0 l/m 3,7 km/h (1 Bft) 0,37 h 0,00 h 6,1 km/h (2 Bft)
02.08.2011 09:00 22,6 C 20,7 C 6,6 UV-I 5,8 C 60 % 77 % 100 % 1016,6 hPa 0,0 l/m 6,9 km/h (2 Bft) 1,00 h 0,00 h 11,0 km/h (2 Bft)
02.08.2011 10:00 22,8 C 23,1 C 6,3 UV-I 5,7 C 60 % 67 % 100 % 1016,2 hPa 0,0 l/m 7,9 km/h (2 Bft) 1,00 h 0,00 h 11,5 km/h (2 Bft)
02.08.2011 11:00 23,1 C 24,7 C 7,2 UV-I 5,2 C 60 % 60 % 100 % 1016,3 hPa 0,0 l/m 10,2 km/h (2 Bft) 1,00 h 0,00 h 14,9 km/h (3 Bft)
02.08.2011 12:00 23,4 C 26,4 C 2,5 UV-I 5,1 C 59 % 55 % 100 % 1016,7 hPa 0,0 l/m 9,2 km/h (2 Bft) 1,00 h 0,00 h 14,1 km/h (3 Bft)
02.08.2011 13:00 24,0 C 27,9 C 4,1 UV-I 5,3 C 58 % 49 % 100 % 1016,6 hPa 0,0 l/m 7,4 km/h (2 Bft) 1,00 h 0,00 h 9,8 km/h (2 Bft)
02.08.2011 14:00 25,0 C 28,8 C 6,1 UV-I 4,8 C 56 % 45 % 100 % 1016,3 hPa 0,0 l/m 9,7 km/h (2 Bft) 1,00 h 0,00 h 12,8 km/h (3 Bft)
02.08.2011 15:00 26,1 C 30,0 C 7,9 UV-I 5,0 C 53 % 42 % 100 % 1016,7 hPa 0,0 l/m 7,7 km/h (2 Bft) 1,00 h 0,00 h 11,6 km/h (2 Bft)
02.08.2011 16:00 26,6 C 30,5 C 8,4 UV-I 4,6 C 51 % 39 % 100 % 1016,2 hPa 0,0 l/m 8,2 km/h (2 Bft) 1,00 h 0,00 h 11,7 km/h (2 Bft)
02.08.2011 17:00 26,3 C 30,2 C 4,9 UV-I 3,8 C 52 % 39 % 97 % 1015,5 hPa 0,0 l/m 7,7 km/h (2 Bft) 0,93 h 0,00 h 11,2 km/h (2 Bft)
02.08.2011 18:00 26,0 C 29,3 C 2,0 UV-I 2,4 C 53 % 42 % 62 % 1014,7 hPa 0,0 l/m 6,8 km/h (2 Bft) 0,43 h 0,00 h 9,6 km/h (2 Bft)
02.08.2011 19:00 25,8 C 28,4 C 1,1 UV-I 0,4 C 53 % 45 % 11 % 1014,4 hPa 0,0 l/m 5,1 km/h (1 Bft) 0,00 h 0,00 h 8,1 km/h (2 Bft)
02.08.2011 20:00 25,6 C 27,2 C 0,2 UV-I 0,0 C 54 % 47 % 0 % 1014,7 hPa 0,0 l/m 2,8 km/h (1 Bft) 0,00 h 0,00 h 5,0 km/h (1 Bft)
02.08.2011 21:00 25,4 C 25,8 C 0,0 UV-I 0,0 C 55 % 52 % 0 % 1014,9 hPa 0,0 l/m 0,4 km/h (0 Bft) 0,00 h 0,00 h 1,2 km/h (1 Bft)
02.08.2011 22:00 25,2 C 24,2 C 0,0 UV-I 0,0 C 55 % 57 % 0 % 1015,0 hPa 0,0 l/m 0,3 km/h (0 Bft) 0,00 h 0,00 h 1,3 km/h (1 Bft)
02.08.2011 23:00 25,1 C 23,4 C 0,0 UV-I 0,0 C 56 % 59 % 0 % 1015,0 hPa 0,0 l/m 2,4 km/h (1 Bft) 0,00 h 0,00 h 4,5 km/h (1 Bft)
03.08.2011 00:00 25,0 C 22,1 C 0,0 UV-I 0,0 C 56 % 64 % 0 % 1014,6 hPa 0,0 l/m 3,9 km/h (1 Bft) 0,00 h 0,00 h 5,6 km/h (1 Bft)
03.08.2011 01:00 24,8 C 20,8 C 0,0 UV-I 0,0 C 57 % 68 % 0 % 1014,7 hPa 0,0 l/m 2,0 km/h (1 Bft) 0,00 h 0,00 h 3,8 km/h (1 Bft)
03.08.2011 02:00 24,6 C 20,4 C 0,0 UV-I 0,0 C 57 % 70 % 0 % 1014,5 hPa 0,0 l/m 4,7 km/h (1 Bft) 0,00 h 0,00 h 6,9 km/h (2 Bft)
03.08.2011 03:00 24,5 C 19,9 C 0,0 UV-I 0,0 C 58 % 72 % 0 % 1014,1 hPa 0,0 l/m 3,9 km/h (1 Bft) 0,00 h 0,00 h 5,8 km/h (2 Bft)
03.08.2011 04:00 24,4 C 19,8 C 0,0 UV-I 0,0 C 58 % 73 % 0 % 1014,0 hPa 0,0 l/m 4,5 km/h (1 Bft) 0,00 h 0,23 h 6,6 km/h (2 Bft)
03.08.2011 05:00 24,3 C 19,7 C 0,0 UV-I 0,0 C 58 % 73 % 0 % 1013,7 hPa 0,0 l/m 5,1 km/h (1 Bft) 0,00 h 0,00 h 7,2 km/h (2 Bft)
03.08.2011 06:00 24,2 C 19,6 C 0,0 UV-I 0,0 C 58 % 74 % 0 % 1013,4 hPa 0,0 l/m 3,4 km/h (1 Bft) 0,00 h 0,00 h 5,2 km/h (1 Bft)
03.08.2011 07:00 24,2 C 19,4 C 0,1 UV-I 0,0 C 58 % 76 % 0 % 1013,6 hPa 0,0 l/m 2,8 km/h (1 Bft) 0,00 h 0,13 h 5,9 km/h (2 Bft)
03.08.2011 08:00 24,2 C 20,2 C 0,9 UV-I 0,6 C 58 % 75 % 17 % 1013,6 hPa 0,0 l/m 5,5 km/h (1 Bft) 0,00 h 0,00 h 8,6 km/h (2 Bft)
03.08.2011 09:00 24,4 C 21,7 C 1,7 UV-I 1,8 C 59 % 71 % 50 % 1013,1 hPa 0,0 l/m 5,8 km/h (2 Bft) 0,00 h 0,00 h 8,8 km/h (2 Bft)
03.08.2011 10:00 24,6 C 23,4 C 3,9 UV-I 3,3 C 58 % 67 % 79 % 1013,3 hPa 0,0 l/m 10,0 km/h (2 Bft) 0,50 h 0,00 h 14,1 km/h (3 Bft)
03.08.2011 11:00 24,8 C 24,7 C 4,0 UV-I 3,1 C 58 % 63 % 72 % 1013,4 hPa 0,0 l/m 10,9 km/h (2 Bft) 0,53 h 0,00 h 14,1 km/h (3 Bft)
03.08.2011 12:00 24,9 C 22,9 C 1,9 UV-I 0,1 C 58 % 73 % 3 % 1013,4 hPa 0,2 l/m 4,4 km/h (1 Bft) 0,00 h 0,90 h 6,2 km/h (2 Bft)
03.08.2011 13:00 25,0 C 21,7 C 1,8 UV-I 0,7 C 60 % 79 % 21 % 1013,9 hPa 0,1 l/m 3,1 km/h (1 Bft) 0,00 h 0,17 h 5,6 km/h (1 Bft)
03.08.2011 14:00 25,0 C 20,6 C 0,6 UV-I 0,1 C 60 % 84 % 3 % 1014,1 hPa 2,5 l/m 3,1 km/h (1 Bft) 0,00 h 0,87 h 5,9 km/h (2 Bft)
03.08.2011 15:00 24,8 C 19,9 C 0,9 UV-I 0,0 C 61 % 89 % 0 % 1014,2 hPa 0,1 l/m 0,4 km/h (0 Bft) 0,00 h 0,30 h 1,3 km/h (1 Bft)
03.08.2011 16:00 24,8 C 20,3 C 1,5 UV-I 1,0 C 62 % 89 % 29 % 1014,0 hPa 0,0 l/m 0,8 km/h (0 Bft) 0,00 h 0,00 h 2,1 km/h (1 Bft)
03.08.2011 17:00 24,9 C 21,3 C 1,5 UV-I 1,5 C 62 % 87 % 44 % 1013,9 hPa 0,0 l/m 1,6 km/h (1 Bft) 0,00 h 0,00 h 4,0 km/h (1 Bft)
03.08.2011 18:00 25,0 C 21,2 C 0,6 UV-I 0,4 C 62 % 86 % 13 % 1013,9 hPa 0,0 l/m 2,0 km/h (1 Bft) 0,00 h 0,00 h 4,3 km/h (1 Bft)
03.08.2011 19:00 24,8 C 20,7 C 0,4 UV-I 0,0 C 62 % 86 % 1 % 1013,9 hPa 0,0 l/m 1,3 km/h (1 Bft) 0,00 h 0,00 h 2,7 km/h (1 Bft)
03.08.2011 20:00 24,6 C 20,6 C 0,1 UV-I 0,0 C 63 % 87 % 0 % 1014,1 hPa 0,0 l/m 2,3 km/h (1 Bft) 0,00 h 0,00 h 3,6 km/h (1 Bft)
03.08.2011 21:00 24,4 C 20,3 C 0,0 UV-I 0,0 C 63 % 85 % 0 % 1014,6 hPa 0,0 l/m 2,4 km/h (1 Bft) 0,00 h 0,00 h 4,9 km/h (1 Bft)
03.08.2011 22:00 24,3 C 19,7 C 0,0 UV-I 0,0 C 64 % 85 % 0 % 1015,0 hPa 0,0 l/m 1,4 km/h (1 Bft) 0,00 h 0,00 h 3,5 km/h (1 Bft)
03.08.2011 23:00 24,2 C 19,1 C 0,0 UV-I 0,0 C 64 % 87 % 0 % 1015,4 hPa 0,0 l/m 1,1 km/h (0 Bft) 0,00 h 0,00 h 2,8 km/h (1 Bft)
04.08.2011 00:00 24,1 C 18,7 C 0,0 UV-I 0,0 C 64 % 88 % 0 % 1015,5 hPa 0,0 l/m 0,9 km/h (0 Bft) 0,00 h 0,00 h 2,8 km/h (1 Bft)
04.08.2011 01:00 24,0 C 18,4 C 0,0 UV-I 0,0 C 64 % 88 % 0 % 1015,5 hPa 0,0 l/m 0,5 km/h (0 Bft) 0,00 h 0,00 h 1,4 km/h (1 Bft)
04.08.2011 02:00 23,9 C 17,9 C 0,0 UV-I 0,0 C 64 % 89 % 0 % 1015,6 hPa 0,0 l/m 0,2 km/h (0 Bft) 0,00 h 0,00 h 0,5 km/h (0 Bft)
04.08.2011 03:00 23,8 C 17,1 C 0,0 UV-I 0,0 C 64 % 89 % 0 % 1015,3 hPa 0,0 l/m 0,0 km/h (0 Bft) 0,00 h 0,00 h 0,0 km/h (0 Bft)
04.08.2011 04:00 23,6 C 16,3 C 0,0 UV-I 0,0 C 65 % 90 % 0 % 1015,1 hPa 0,0 l/m 0,0 km/h (0 Bft) 0,00 h 0,00 h 0,0 km/h (0 Bft)
04.08.2011 05:00 23,5 C 15,8 C 0,0 UV-I 0,0 C 64 % 91 % 0 % 1015,0 hPa 0,0 l/m 0,0 km/h (0 Bft) 0,00 h 0,00 h 0,0 km/h (0 Bft)
04.08.2011 06:00 23,4 C 15,6 C 0,0 UV-I 0,0 C 64 % 92 % 0 % 1015,2 hPa 0,0 l/m 0,2 km/h (0 Bft) 0,00 h 0,00 h 0,3 km/h (0 Bft)
04.08.2011 07:00 23,4 C 16,2 C 0,5 UV-I 0,0 C 64 % 92 % 0 % 1015,0 hPa 0,0 l/m 0,8 km/h (0 Bft) 0,00 h 0,00 h 3,1 km/h (1 Bft)
04.08.2011 08:00 23,4 C 17,7 C 1,3 UV-I 1,6 C 64 % 92 % 39 % 1015,4 hPa 0,0 l/m 2,4 km/h (1 Bft) 0,30 h 0,00 h 5,0 km/h (1 Bft)
04.08.2011 09:00 23,5 C 19,9 C 4,2 UV-I 6,0 C 64 % 86 % 100 % 1015,4 hPa 0,0 l/m 2,7 km/h (1 Bft) 1,00 h 0,00 h 5,6 km/h (1 Bft)
04.08.2011 10:00 23,6 C 22,0 C 6,3 UV-I 6,9 C 64 % 75 % 100 % 1015,2 hPa 0,0 l/m 4,0 km/h (1 Bft) 1,00 h 0,00 h 6,7 km/h (2 Bft)
04.08.2011 11:00 23,8 C 23,7 C 7,2 UV-I 6,8 C 62 % 66 % 100 % 1015,2 hPa 0,0 l/m 5,4 km/h (1 Bft) 1,00 h 0,00 h 8,3 km/h (2 Bft)
04.08.2011 12:00 24,0 C 25,0 C 3,2 UV-I 6,5 C 61 % 60 % 100 % 1015,0 hPa 0,0 l/m 5,9 km/h (2 Bft) 1,00 h 0,00 h 7,5 km/h (2 Bft)
04.08.2011 13:00 24,5 C 26,4 C 4,4 UV-I 6,6 C 60 % 54 % 100 % 1014,6 hPa 0,0 l/m 4,6 km/h (1 Bft) 1,00 h 0,00 h 7,0 km/h (2 Bft)
04.08.2011 14:00 25,5 C 27,5 C 6,4 UV-I 6,5 C 58 % 49 % 100 % 1014,6 hPa 0,0 l/m 5,7 km/h (1 Bft) 1,00 h 0,00 h 8,4 km/h (2 Bft)
04.08.2011 15:00 26,7 C 28,5 C 7,7 UV-I 6,3 C 55 % 47 % 100 % 1014,3 hPa 0,0 l/m 4,4 km/h (1 Bft) 1,00 h 0,00 h 8,2 km/h (2 Bft)
04.08.2011 16:00 27,3 C 28,6 C 7,1 UV-I 5,3 C 53 % 46 % 100 % 1013,9 hPa 0,0 l/m 4,5 km/h (1 Bft) 1,00 h 0,00 h 8,3 km/h (2 Bft)
04.08.2011 17:00 27,4 C 27,9 C 2,1 UV-I 2,2 C 52 % 49 % 50 % 1013,0 hPa 0,0 l/m 1,3 km/h (1 Bft) 0,30 h 0,00 h 1,8 km/h (1 Bft)
04.08.2011 18:00 26,8 C 26,3 C 0,6 UV-I 0,2 C 53 % 56 % 6 % 1012,2 hPa 0,1 l/m 1,1 km/h (1 Bft) 0,00 h 0,10 h 1,9 km/h (1 Bft)
04.08.2011 19:00 26,4 C 24,8 C 0,3 UV-I 0,0 C 55 % 64 % 0 % 1012,1 hPa 0,0 l/m 1,8 km/h (1 Bft) 0,00 h 0,07 h 2,5 km/h (1 Bft)
04.08.2011 20:00 26,1 C 24,5 C 0,1 UV-I 0,0 C 56 % 60 % 0 % 1012,0 hPa 0,0 l/m 1,3 km/h (1 Bft) 0,00 h 0,00 h 3,3 km/h (1 Bft)
04.08.2011 21:00 25,8 C 22,1 C 0,0 UV-I 0,0 C 57 % 70 % 0 % 1012,6 hPa 0,0 l/m 6,1 km/h (2 Bft) 0,00 h 0,40 h 9,4 km/h (2 Bft)
04.08.2011 22:00 25,5 C 19,9 C 0,0 UV-I 0,0 C 58 % 82 % 0 % 1013,1 hPa 0,1 l/m 2,7 km/h (1 Bft) 0,00 h 0,53 h 4,7 km/h (1 Bft)
04.08.2011 23:00 25,2 C 18,9 C 0,0 UV-I 0,0 C 60 % 86 % 0 % 1012,9 hPa 1,6 l/m 0,8 km/h (0 Bft) 0,00 h 1,00 h 1,5 km/h (1 Bft)
05.08.2011 00:00 24,9 C 18,6 C 0,0 UV-I 0,0 C 61 % 89 % 0 % 1012,7 hPa 1,6 l/m 1,0 km/h (0 Bft) 0,00 h 1,00 h 3,2 km/h (1 Bft)
05.08.2011 01:00 24,8 C 18,4 C 0,0 UV-I 0,0 C 62 % 90 % 0 % 1012,3 hPa 0,2 l/m 1,7 km/h (1 Bft) 0,00 h 0,13 h 4,8 km/h (1 Bft)
05.08.2011 02:00 24,6 C 18,3 C 0,0 UV-I 0,0 C 62 % 91 % 0 % 1012,1 hPa 0,0 l/m 0,8 km/h (0 Bft) 0,00 h 0,00 h 2,2 km/h (1 Bft)
05.08.2011 03:00 24,6 C 18,3 C 0,0 UV-I 0,0 C 63 % 92 % 0 % 1011,9 hPa 0,1 l/m 0,8 km/h (0 Bft) 0,00 h 0,23 h 2,6 km/h (1 Bft)
05.08.2011 04:00 24,5 C 18,2 C 0,0 UV-I 0,0 C 63 % 92 % 0 % 1011,9 hPa 0,1 l/m 0,7 km/h (0 Bft) 0,00 h 0,03 h 1,8 km/h (1 Bft)
05.08.2011 05:00 24,4 C 18,3 C 0,0 UV-I 0,0 C 64 % 92 % 0 % 1012,1 hPa 0,0 l/m 1,2 km/h (1 Bft) 0,00 h 0,13 h 2,5 km/h (1 Bft)
05.08.2011 06:00 24,2 C 17,6 C 0,1 UV-I 0,0 C 64 % 90 % 0 % 1012,4 hPa 0,0 l/m 1,6 km/h (1 Bft) 0,00 h 0,00 h 3,5 km/h (1 Bft)
05.08.2011 07:00 24,2 C 16,7 C 0,2 UV-I 0,0 C 63 % 90 % 0 % 1012,9 hPa 0,0 l/m 2,7 km/h (1 Bft) 0,00 h 0,00 h 5,6 km/h (1 Bft)
05.08.2011 08:00 24,1 C 16,5 C 0,2 UV-I 0,0 C 63 % 91 % 1 % 1013,2 hPa 0,0 l/m 2,0 km/h (1 Bft) 0,00 h 0,00 h 4,2 km/h (1 Bft)
05.08.2011 09:00 24,0 C 16,6 C 0,6 UV-I 0,6 C 63 % 90 % 19 % 1013,6 hPa 0,0 l/m 1,2 km/h (1 Bft) 0,00 h 0,00 h 3,2 km/h (1 Bft)
05.08.2011 10:00 24,0 C 17,2 C 1,1 UV-I 1,4 C 62 % 89 % 39 % 1013,9 hPa 0,0 l/m 1,7 km/h (1 Bft) 0,00 h 0,00 h 3,7 km/h (1 Bft)
05.08.2011 11:00 24,2 C 18,2 C 1,9 UV-I 2,5 C 62 % 86 % 72 % 1014,1 hPa 0,0 l/m 1,5 km/h (1 Bft) 0,17 h 0,00 h 3,4 km/h (1 Bft)
05.08.2011 12:00 24,5 C 19,1 C 2,6 UV-I 3,7 C 61 % 82 % 96 % 1014,3 hPa 0,0 l/m 1,7 km/h (1 Bft) 0,97 h 0,00 h 3,9 km/h (1 Bft)
05.08.2011 13:00 24,7 C 19,8 C 3,3 UV-I 4,6 C 60 % 78 % 100 % 1014,4 hPa 0,0 l/m 3,2 km/h (1 Bft) 1,00 h 0,00 h 5,9 km/h (2 Bft)
05.08.2011 14:00 25,2 C 21,3 C 5,7 UV-I 6,8 C 59 % 72 % 100 % 1014,4 hPa 0,0 l/m 3,8 km/h (1 Bft) 1,00 h 0,00 h 7,2 km/h (2 Bft)
05.08.2011 15:00 25,9 C 22,0 C 6,2 UV-I 6,5 C 56 % 68 % 100 % 1014,1 hPa 0,0 l/m 6,8 km/h (2 Bft) 1,00 h 0,00 h 10,1 km/h (2 Bft)
05.08.2011 16:00 26,2 C 21,7 C 4,0 UV-I 4,1 C 55 % 68 % 98 % 1013,7 hPa 0,0 l/m 6,0 km/h (2 Bft) 1,00 h 0,03 h 8,2 km/h (2 Bft)
05.08.2011 17:00 26,3 C 22,1 C 3,9 UV-I 4,5 C 55 % 68 % 100 % 1013,4 hPa 0,0 l/m 5,6 km/h (1 Bft) 1,00 h 0,00 h 8,4 km/h (2 Bft)
05.08.2011 18:00 26,2 C 21,6 C 1,2 UV-I 1,8 C 55 % 68 % 50 % 1013,2 hPa 0,0 l/m 3,1 km/h (1 Bft) 0,07 h 0,00 h 4,6 km/h (1 Bft)
05.08.2011 19:00 25,8 C 21,2 C 0,6 UV-I 0,8 C 57 % 70 % 22 % 1012,7 hPa 0,0 l/m 2,6 km/h (1 Bft) 0,00 h 0,00 h 5,0 km/h (1 Bft)
05.08.2011 20:00 25,5 C 20,7 C 0,2 UV-I 0,1 C 57 % 71 % 2 % 1012,3 hPa 0,0 l/m 0,6 km/h (0 Bft) 0,00 h 0,00 h 0,9 km/h (0 Bft)
05.08.2011 21:00 25,2 C 19,9 C 0,0 UV-I 0,0 C 58 % 76 % 0 % 1012,1 hPa 0,0 l/m 0,1 km/h (0 Bft) 0,00 h 0,00 h 0,5 km/h (0 Bft)
05.08.2011 22:00 24,9 C 19,3 C 0,0 UV-I 0,0 C 59 % 80 % 0 % 1012,2 hPa 0,0 l/m 0,0 km/h (0 Bft) 0,00 h 0,00 h 0,0 km/h (0 Bft)
05.08.2011 23:00 24,7 C 19,0 C 0,0 UV-I 0,0 C 60 % 83 % 0 % 1011,8 hPa 0,0 l/m 0,1 km/h (0 Bft) 0,00 h 0,00 h 0,2 km/h (0 Bft)
06.08.2011 00:00 24,6 C 18,7 C 0,0 UV-I 0,0 C 61 % 84 % 0 % 1011,0 hPa 0,0 l/m 0,1 km/h (0 Bft) 0,00 h 0,00 h 0,3 km/h (0 Bft)
06.08.2011 01:00 24,4 C 18,3 C 0,0 UV-I 0,0 C 61 % 85 % 0 % 1010,8 hPa 0,0 l/m 0,1 km/h (0 Bft) 0,00 h 0,00 h 0,4 km/h (0 Bft)
06.08.2011 02:00 24,3 C 17,8 C 0,0 UV-I 0,0 C 61 % 85 % 0 % 1010,1 hPa 0,0 l/m 0,0 km/h (0 Bft) 0,00 h 0,00 h 0,0 km/h (0 Bft)
06.08.2011 03:00 24,2 C 17,3 C 0,0 UV-I 0,0 C 62 % 87 % 0 % 1009,3 hPa 0,0 l/m 0,0 km/h (0 Bft) 0,00 h 0,00 h 0,0 km/h (0 Bft)
06.08.2011 04:00 24,1 C 17,1 C 0,0 UV-I 0,0 C 62 % 88 % 0 % 1009,1 hPa 0,0 l/m 0,0 km/h (0 Bft) 0,00 h 0,00 h 0,0 km/h (0 Bft)
06.08.2011 05:00 24,0 C 16,9 C 0,0 UV-I 0,0 C 62 % 88 % 0 % 1008,4 hPa 0,0 l/m 0,0 km/h (0 Bft) 0,00 h 0,00 h 0,0 km/h (0 Bft)
06.08.2011 06:00 23,9 C 16,3 C 0,0 UV-I 0,0 C 62 % 88 % 0 % 1007,8 hPa 0,0 l/m 0,1 km/h (0 Bft) 0,00 h 0,00 h 0,0 km/h (0 Bft)
06.08.2011 07:00 23,8 C 16,9 C 0,1 UV-I 0,2 C 62 % 90 % 6 % 1007,5 hPa 0,0 l/m 2,9 km/h (1 Bft) 0,00 h 0,00 h 5,2 km/h (1 Bft)
06.08.2011 08:00 23,8 C 18,6 C 0,6 UV-I 1,3 C 63 % 90 % 38 % 1006,9 hPa 0,0 l/m 4,5 km/h (1 Bft) 0,00 h 0,00 h 6,7 km/h (2 Bft)
06.08.2011 09:00 24,0 C 20,7 C 0,9 UV-I 1,7 C 64 % 86 % 49 % 1006,5 hPa 0,0 l/m 5,3 km/h (1 Bft) 0,23 h 0,10 h 7,6 km/h (2 Bft)
06.08.2011 10:00 24,2 C 21,5 C 1,5 UV-I 0,9 C 66 % 86 % 26 % 1006,3 hPa 0,1 l/m 3,4 km/h (1 Bft) 0,00 h 0,53 h 5,9 km/h (2 Bft)
06.08.2011 11:00 24,5 C 23,2 C 3,7 UV-I 3,4 C 66 % 81 % 86 % 1005,7 hPa 0,0 l/m 7,2 km/h (2 Bft) 0,53 h 0,00 h 11,2 km/h (2 Bft)
06.08.2011 12:00 24,8 C 24,8 C 3,4 UV-I 4,1 C 65 % 72 % 95 % 1005,1 hPa 0,0 l/m 9,0 km/h (2 Bft) 0,83 h 0,00 h 15,2 km/h (3 Bft)
06.08.2011 13:00 25,2 C 25,8 C 3,0 UV-I 2,8 C 64 % 66 % 78 % 1004,5 hPa 0,0 l/m 8,4 km/h (2 Bft) 0,50 h 0,00 h 12,0 km/h (2 Bft)
06.08.2011 14:00 25,3 C 24,3 C 2,0 UV-I 0,9 C 64 % 74 % 26 % 1003,9 hPa 0,0 l/m 8,6 km/h (2 Bft) 0,00 h 0,10 h 12,1 km/h (2 Bft)
06.08.2011 15:00 25,4 C 23,8 C 1,6 UV-I 1,0 C 65 % 75 % 30 % 1003,5 hPa 0,5 l/m 6,3 km/h (2 Bft) 0,00 h 0,47 h 9,3 km/h (2 Bft)
06.08.2011 16:00 25,2 C 21,0 C 1,9 UV-I 0,5 C 65 % 80 % 15 % 1002,9 hPa 0,0 l/m 1,0 km/h (0 Bft) 0,00 h 0,07 h 1,9 km/h (1 Bft)
06.08.2011 17:00 25,2 C 21,1 C 1,3 UV-I 0,2 C 66 % 85 % 6 % 1002,6 hPa 0,2 l/m 1,9 km/h (1 Bft) 0,00 h 0,27 h 4,1 km/h (1 Bft)
06.08.2011 18:00 25,1 C 21,3 C 0,8 UV-I 0,4 C 67 % 87 % 10 % 1001,9 hPa 0,0 l/m 2,5 km/h (1 Bft) 0,00 h 0,03 h 4,5 km/h (1 Bft)
06.08.2011 19:00 24,9 C 20,9 C 0,1 UV-I 0,0 C 68 % 88 % 0 % 1001,4 hPa 0,1 l/m 2,0 km/h (1 Bft) 0,00 h 0,40 h 4,4 km/h (1 Bft)
06.08.2011 20:00 24,7 C 20,4 C 0,0 UV-I 0,0 C 68 % 87 % 0 % 1001,0 hPa 0,1 l/m 1,9 km/h (1 Bft) 0,00 h 0,33 h 3,8 km/h (1 Bft)
06.08.2011 21:00 24,3 C 19,4 C 0,0 UV-I 0,0 C 68 % 88 % 0 % 1000,7 hPa 1,1 l/m 2,6 km/h (1 Bft) 0,00 h 0,97 h 5,0 km/h (1 Bft)
06.08.2011 22:00 24,0 C 18,4 C 0,0 UV-I 0,0 C 67 % 89 % 0 % 1000,3 hPa 0,0 l/m 2,5 km/h (1 Bft) 0,00 h 0,00 h 5,2 km/h (1 Bft)
06.08.2011 23:00 23,7 C 17,9 C 0,0 UV-I 0,0 C 65 % 88 % 0 % 1000,3 hPa 0,0 l/m 4,2 km/h (1 Bft) 0,00 h 0,00 h 7,7 km/h (2 Bft)
07.08.2011 00:00 23,4 C 17,6 C 0,0 UV-I 0,0 C 65 % 89 % 0 % 1000,9 hPa 0,0 l/m 4,0 km/h (1 Bft) 0,00 h 0,00 h 7,1 km/h (2 Bft)
07.08.2011 01:00 23,3 C 16,8 C 0,0 UV-I 0,0 C 64 % 89 % 0 % 1001,4 hPa 0,0 l/m 2,4 km/h (1 Bft) 0,00 h 0,00 h 4,8 km/h (1 Bft)
07.08.2011 02:00 23,2 C 16,2 C 0,0 UV-I 0,0 C 63 % 89 % 0 % 1001,7 hPa 0,0 l/m 3,9 km/h (1 Bft) 0,00 h 0,10 h 6,9 km/h (2 Bft)
07.08.2011 03:00 23,0 C 15,4 C 0,0 UV-I 0,0 C 62 % 89 % 0 % 1002,2 hPa 0,0 l/m 3,1 km/h (1 Bft) 0,00 h 0,00 h 5,2 km/h (1 Bft)
07.08.2011 04:00 22,7 C 15,1 C 0,0 UV-I 0,0 C 60 % 89 % 0 % 1002,8 hPa 0,0 l/m 3,9 km/h (1 Bft) 0,00 h 0,00 h 6,0 km/h (2 Bft)
07.08.2011 05:00 22,4 C 14,9 C 0,0 UV-I 0,0 C 60 % 87 % 0 % 1003,1 hPa 0,0 l/m 2,4 km/h (1 Bft) 0,00 h 0,00 h 4,3 km/h (1 Bft)
07.08.2011 06:00 22,2 C 14,6 C 0,0 UV-I 0,0 C 59 % 87 % 0 % 1003,9 hPa 0,0 l/m 2,6 km/h (1 Bft) 0,00 h 0,00 h 5,2 km/h (1 Bft)
07.08.2011 07:00 22,0 C 14,5 C 0,0 UV-I 0,1 C 59 % 87 % 3 % 1004,7 hPa 0,0 l/m 2,9 km/h (1 Bft) 0,00 h 0,00 h 4,7 km/h (1 Bft)
07.08.2011 08:00 21,9 C 15,1 C 0,0 UV-I 0,9 C 59 % 86 % 25 % 1005,2 hPa 0,0 l/m 3,9 km/h (1 Bft) 0,00 h 0,00 h 6,7 km/h (2 Bft)
07.08.2011 09:00 21,9 C 15,6 C 0,0 UV-I 1,0 C 58 % 83 % 29 % 1005,4 hPa 0,0 l/m 5,6 km/h (1 Bft) 0,00 h 0,00 h 11,1 km/h (2 Bft)
07.08.2011 10:00 21,9 C 16,6 C 2,2 UV-I 3,2 C 58 % 79 % 76 % 1005,8 hPa 0,0 l/m 6,3 km/h (2 Bft) 0,47 h 0,00 h 8,1 km/h (2 Bft)
07.08.2011 11:00 22,0 C 18,4 C 5,2 UV-I 5,1 C 56 % 71 % 100 % 1005,7 hPa 0,0 l/m 8,7 km/h (2 Bft) 1,00 h 0,00 h 11,1 km/h (2 Bft)
07.08.2011 12:00 22,2 C 19,4 C 2,4 UV-I 4,9 C 55 % 65 % 100 % 1005,9 hPa 0,0 l/m 7,9 km/h (2 Bft) 1,00 h 0,00 h 10,6 km/h (2 Bft)
07.08.2011 13:00 22,6 C 20,2 C 2,3 UV-I 4,0 C 53 % 61 % 84 % 1006,2 hPa 0,0 l/m 8,7 km/h (2 Bft) 0,67 h 0,00 h 11,8 km/h (2 Bft)
07.08.2011 14:00 23,3 C 20,9 C 5,2 UV-I 4,9 C 51 % 57 % 100 % 1006,5 hPa 0,0 l/m 9,7 km/h (2 Bft) 1,00 h 0,00 h 15,1 km/h (3 Bft)
07.08.2011 15:00 24,3 C 21,7 C 5,8 UV-I 4,6 C 48 % 53 % 99 % 1006,8 hPa 0,0 l/m 7,5 km/h (2 Bft) 0,97 h 0,00 h 9,4 km/h (2 Bft)
07.08.2011 16:00 24,7 C 21,5 C 3,6 UV-I 3,0 C 46 % 53 % 82 % 1006,6 hPa 0,0 l/m 7,2 km/h (2 Bft) 0,57 h 0,00 h 11,0 km/h (2 Bft)
07.08.2011 17:00 24,7 C 21,3 C 2,0 UV-I 2,9 C 46 % 54 % 72 % 1006,4 hPa 0,0 l/m 6,3 km/h (2 Bft) 0,53 h 0,00 h 7,7 km/h (2 Bft)
07.08.2011 18:00 24,7 C 21,1 C 0,9 UV-I 1,6 C 46 % 54 % 47 % 1006,0 hPa 0,0 l/m 4,8 km/h (1 Bft) 0,03 h 0,00 h 7,0 km/h (2 Bft)
07.08.2011 19:00 24,3 C 20,5 C 0,0 UV-I 0,3 C 47 % 57 % 8 % 1005,7 hPa 0,0 l/m 2,8 km/h (1 Bft) 0,00 h 0,00 h 4,6 km/h (1 Bft)
07.08.2011 20:00 23,9 C 19,5 C 0,0 UV-I 0,0 C 49 % 61 % 0 % 1005,5 hPa 0,0 l/m 1,5 km/h (1 Bft) 0,00 h 0,17 h 3,8 km/h (1 Bft)
07.08.2011 21:00 23,6 C 18,0 C 0,0 UV-I 0,0 C 50 % 66 % 0 % 1005,3 hPa 0,0 l/m 0,5 km/h (0 Bft) 0,00 h 0,00 h 1,6 km/h (1 Bft)
07.08.2011 22:00 23,1 C 17,7 C 0,0 UV-I 0,0 C 49 % 64 % 0 % 1005,0 hPa 0,0 l/m 1,5 km/h (1 Bft) 0,00 h 0,00 h 3,4 km/h (1 Bft)
07.08.2011 23:00 22,9 C 16,7 C 0,0 UV-I 0,0 C 50 % 67 % 0 % 1004,4 hPa 0,0 l/m 1,8 km/h (1 Bft) 0,00 h 0,00 h 4,0 km/h (1 Bft)
Min-Datum _ 01.08.11 01.08.11 01.08.11 01.08.11 07.08.11 02.08.11 01.08.11 06.08.11 - 01.08.11 - - 01.08.11
_ Min-Zeit 07:10 06:18 00:00 00:00 18:12 16:12 00:00 23:24 - 00:00 - - 00:00
Minimum _ 20,6 C 8,9 C 0,0 UV-I 0,0 C 45 % 38 % 0 % 1000,1 hPa - 0,0 km/h (0 Bft) - - 0,0 km/h (0 Bft)
Max-Datum _ 04.08.11 02.08.11 02.08.11 01.08.11 06.08.11 04.08.11 01.08.11 02.08.11 03.08.11 02.08.11 01.08.11 03.08.11 06.08.11
_ Max-Zeit 16:54 16:40 15:50 10:44 19:50 07:36 08:48 12:04 14:18 11:38 08:44 04:24 15:40
Maximum _ 27,6 C 30,8 C 8,6 UV-I 8,8 C 69 % 93 % 100 % 1016,9 hPa 2,5 l/m 13,3 km/h
N-NO (3 Bft)
0,03 h 0,03 h 37,7 km/h
N-NO (5 Bft)
Durchschnitt _ 24,1 C 20,0 C 1,6 UV-I 1,6 C 59 % 75 % 32 % 1011,9 hPa #9,2 l/m 3,1 km/h (1 Bft) #43:42 h #9:52 h 5,1 km/h (1 Bft)
© 2012 W. Hausmann